Pattersonville, New York
Current Conditions -  °F | °C
As of 9:35 PM on Thursday 27 Nov 2014 (Local Time) from KNY0 Reporting Station
Overcast Overcast  
Wind Chill: 17°   Ceiling: 5500
Heat Index: 24°   Visibility: 10mi
Dew Point: 22°   Wind: 6mph
Humidity: 91%   Direction: 260°W
Pressure: 30.02"   Gusts: NA
Location:  42.89°N, 74.08°W
Report Text: KNY0 280235Z AUTO 26005KT 10SM BKN055 OVC090 M04/M05 A3002 RMK AO2 T10421055
Loading
Personal Weather Stations






























Interactive Weather Map New forecast layout! Learn more

10-Day Weather Forecast

Advertisements
Track Severe Weather on mobile